createdAt,value
2023-06-21T00:00:12.450Z,15.72
2023-06-21T00:01:12.539Z,22.84
2023-06-21T00:02:11.483Z,27.89
2023-06-21T00:03:12.629Z,30.68
2023-06-21T00:04:11.643Z,29.45
2023-06-21T00:05:12.614Z,29.53
2023-06-21T00:06:12.661Z,33.17
2023-06-21T00:07:12.682Z,34.26
2023-06-21T00:08:12.655Z,33.58
2023-06-21T00:09:12.726Z,33.76
2023-06-21T00:10:12.689Z,30.46
2023-06-21T00:11:12.804Z,28.59
2023-06-21T00:12:12.780Z,22.69
2023-06-21T00:13:11.790Z,27.01
2023-06-21T00:14:12.917Z,32.28
2023-06-21T00:15:12.856Z,54.67
2023-06-21T00:16:12.913Z,53.62
2023-06-21T00:17:12.934Z,53.03
2023-06-21T00:18:12.996Z,60.78
2023-06-21T00:19:13.110Z,54.11
2023-06-21T00:20:13.088Z,44.49
2023-06-21T00:21:13.151Z,45.61
2023-06-21T00:22:12.159Z,52.81
2023-06-21T00:23:13.192Z,44.23
2023-06-21T00:24:13.254Z,47.27
2023-06-21T00:25:12.334Z,49.46
2023-06-21T00:26:13.359Z,52.39
2023-06-21T00:27:13.440Z,43.80
2023-06-21T00:28:13.353Z,37.70
2023-06-21T00:29:13.450Z,35.22
2023-06-21T00:30:13.435Z,39.02
2023-06-21T00:31:13.516Z,32.50
2023-06-21T00:32:13.516Z,30.40
2023-06-21T00:33:13.561Z,29.61
2023-06-21T00:34:13.555Z,29.72
2023-06-21T00:35:12.575Z,35.28
2023-06-21T00:36:12.537Z,43.84
2023-06-21T00:37:13.597Z,39.44
2023-06-21T00:38:12.598Z,38.48
2023-06-21T00:39:12.654Z,35.72
2023-06-21T00:40:13.744Z,33.52
2023-06-21T00:41:13.747Z,28.41
2023-06-21T00:42:13.798Z,25.92
2023-06-21T00:43:13.844Z,28.78
2023-06-21T00:44:13.859Z,25.40
2023-06-21T00:45:13.910Z,23.07
2023-06-21T00:46:13.980Z,16.66
2023-06-21T00:47:13.077Z,16.07
2023-06-21T00:48:14.062Z,13.45
2023-06-21T00:49:14.068Z,13.46
2023-06-21T00:50:14.136Z,12.23
2023-06-21T00:51:14.117Z,10.46
2023-06-21T00:52:13.137Z,11.55
2023-06-21T00:53:13.254Z,15.27
2023-06-21T00:54:14.266Z,13.56
2023-06-21T00:55:14.306Z,12.81
2023-06-21T00:56:14.395Z,12.45
2023-06-21T00:57:14.406Z,12.62
2023-06-21T00:58:14.466Z,12.03
2023-06-21T00:59:14.565Z,11.59
2023-06-21T01:00:13.572Z,17.57
2023-06-21T01:01:14.685Z,17.63
2023-06-21T01:02:14.798Z,20.91
2023-06-21T01:03:14.690Z,20.85
2023-06-21T01:04:14.682Z,24.16
2023-06-21T01:05:13.830Z,20.11
2023-06-21T01:06:14.813Z,20.88
2023-06-21T01:07:13.890Z,26.36
2023-06-21T01:08:13.945Z,36.78
2023-06-21T01:09:14.968Z,47.53
2023-06-21T01:10:15.025Z,48.66
2023-06-21T01:11:15.124Z,50.21
2023-06-21T01:12:15.130Z,54.49
2023-06-21T01:13:15.198Z,57.73
2023-06-21T01:14:15.292Z,62.22
2023-06-21T01:15:15.260Z,71.20
2023-06-21T01:16:14.306Z,81.21
2023-06-21T01:17:14.318Z,85.54
2023-06-21T01:18:15.263Z,90.47
2023-06-21T01:19:15.289Z,100.56
2023-06-21T01:20:15.335Z,106.27
2023-06-21T01:21:15.307Z,107.31
2023-06-21T01:22:15.336Z,105.00
2023-06-21T01:23:14.340Z,101.15
2023-06-21T01:24:14.450Z,99.65
2023-06-21T01:25:15.368Z,93.11
2023-06-21T01:26:15.471Z,88.37
2023-06-21T01:27:15.410Z,77.54
2023-06-21T01:28:15.468Z,74.65
2023-06-21T01:29:14.447Z,77.85
2023-06-21T01:30:14.499Z,76.61
2023-06-21T01:31:15.513Z,73.44
2023-06-21T01:32:15.536Z,71.02
2023-06-21T01:33:14.504Z,67.31
2023-06-21T01:34:15.591Z,71.57
2023-06-21T01:35:15.546Z,71.93
2023-06-21T01:36:15.538Z,69.97
2023-06-21T01:37:15.534Z,70.61
2023-06-21T01:38:14.596Z,68.65
2023-06-21T01:39:14.599Z,72.18
2023-06-21T01:40:14.570Z,68.35
2023-06-21T01:41:15.600Z,61.74
2023-06-21T01:42:15.652Z,57.76
2023-06-21T01:43:14.695Z,56.94
2023-06-21T01:44:15.754Z,54.77
2023-06-21T01:45:15.805Z,54.44
2023-06-21T01:46:15.806Z,56.78
2023-06-21T01:47:15.791Z,59.41
2023-06-21T01:48:14.836Z,57.44
2023-06-21T01:49:15.937Z,54.83
2023-06-21T01:50:15.927Z,59.38
2023-06-21T01:51:16.009Z,57.25
2023-06-21T01:52:14.984Z,53.93
2023-06-21T01:53:15.990Z,45.49
2023-06-21T01:54:16.046Z,41.46
2023-06-21T01:55:16.056Z,41.17
2023-06-21T01:56:16.088Z,39.95
2023-06-21T01:57:16.116Z,35.28
2023-06-21T01:58:15.100Z,30.67
2023-06-21T01:59:15.136Z,29.80
2023-06-21T02:00:15.136Z,36.63
2023-06-21T02:01:15.188Z,42.77
2023-06-21T02:02:16.199Z,49.82
2023-06-21T02:03:16.235Z,38.98
2023-06-21T02:04:16.326Z,32.45
2023-06-21T02:05:16.295Z,37.69
2023-06-21T02:06:16.337Z,39.44
2023-06-21T02:07:16.387Z,38.24
2023-06-21T02:08:16.417Z,34.35
2023-06-21T02:09:15.477Z,29.38
2023-06-21T02:10:15.532Z,27.38
2023-06-21T02:11:16.498Z,25.29
2023-06-21T02:12:16.532Z,28.73
2023-06-21T02:13:16.586Z,30.86
2023-06-21T02:14:16.582Z,29.52
2023-06-21T02:15:15.746Z,28.27
2023-06-21T02:16:16.639Z,28.81
2023-06-21T02:17:16.649Z,31.99
2023-06-21T02:18:16.706Z,37.74
2023-06-21T02:19:16.815Z,45.14
2023-06-21T02:20:16.824Z,49.51
2023-06-21T02:21:16.839Z,52.20
2023-06-21T02:22:16.919Z,45.42
2023-06-21T02:23:16.907Z,45.40
2023-06-21T02:24:16.987Z,46.02
2023-06-21T02:25:15.994Z,46.77
2023-06-21T02:26:16.036Z,40.56
2023-06-21T02:27:17.108Z,40.27
2023-06-21T02:28:17.048Z,37.30
2023-06-21T02:29:17.102Z,34.41
2023-06-21T02:30:16.137Z,37.05
2023-06-21T02:31:16.151Z,45.41
2023-06-21T02:32:17.180Z,50.52
2023-06-21T02:33:17.261Z,56.24
2023-06-21T02:34:16.265Z,56.79
2023-06-21T02:35:16.380Z,64.86
2023-06-21T02:36:17.424Z,65.35
2023-06-21T02:37:17.428Z,70.39
2023-06-21T02:38:17.540Z,73.22
2023-06-21T02:39:17.620Z,77.13
2023-06-21T02:40:17.630Z,79.85
2023-06-21T02:41:17.712Z,86.23
2023-06-21T02:42:16.841Z,90.86
2023-06-21T02:43:17.763Z,94.19
2023-06-21T02:44:17.824Z,101.31
2023-06-21T02:45:17.865Z,104.34
2023-06-21T02:46:17.862Z,108.53
2023-06-21T02:47:17.908Z,107.75
2023-06-21T02:48:17.917Z,107.15
2023-06-21T02:49:16.966Z,102.43
2023-06-21T02:50:16.945Z,98.01
2023-06-21T02:51:17.949Z,92.77
2023-06-21T02:52:18.003Z,91.14
2023-06-21T02:53:17.976Z,91.83
2023-06-21T02:54:18.017Z,80.35
2023-06-21T02:55:17.963Z,77.59
2023-06-21T02:56:17.984Z,78.32
2023-06-21T02:57:18.031Z,81.53
2023-06-21T02:58:18.033Z,74.73
2023-06-21T02:59:18.081Z,72.18
2023-06-21T03:00:18.089Z,67.96
2023-06-21T03:01:18.166Z,68.99
2023-06-21T03:02:18.185Z,71.52
2023-06-21T03:03:18.351Z,72.31
2023-06-21T03:04:18.274Z,71.27
2023-06-21T03:05:17.315Z,67.91
2023-06-21T03:06:18.423Z,66.46
2023-06-21T03:07:18.434Z,65.33
2023-06-21T03:08:18.460Z,64.02
2023-06-21T03:09:18.482Z,63.23
2023-06-21T03:10:18.624Z,62.99
2023-06-21T03:11:18.588Z,65.31
2023-06-21T03:12:18.658Z,68.55
2023-06-21T03:13:18.797Z,72.40
2023-06-21T03:14:18.781Z,72.61
2023-06-21T03:15:18.859Z,72.28
2023-06-21T03:16:18.907Z,72.22
2023-06-21T03:17:18.936Z,73.98
2023-06-21T03:18:19.005Z,73.71
2023-06-21T03:19:19.126Z,73.76
2023-06-21T03:20:18.123Z,76.04
2023-06-21T03:21:18.151Z,78.44
2023-06-21T03:22:18.197Z,80.82
2023-06-21T03:23:19.273Z,79.26
2023-06-21T03:24:19.296Z,78.19
2023-06-21T03:25:19.298Z,77.10
2023-06-21T03:26:18.372Z,71.50
2023-06-21T03:27:19.331Z,62.50
2023-06-21T03:28:19.390Z,56.55
2023-06-21T03:29:19.461Z,51.76
2023-06-21T03:30:19.593Z,49.00
2023-06-21T03:31:19.597Z,45.72
2023-06-21T03:32:19.701Z,43.39
2023-06-21T03:33:19.697Z,43.18
2023-06-21T03:34:19.642Z,40.47
2023-06-21T03:35:19.819Z,36.60
2023-06-21T03:36:19.813Z,36.46
2023-06-21T03:37:19.823Z,38.42
2023-06-21T03:38:19.825Z,39.91
2023-06-21T03:39:18.920Z,42.73
2023-06-21T03:40:19.949Z,45.95
2023-06-21T03:41:19.954Z,44.57
2023-06-21T03:42:18.949Z,47.67
2023-06-21T03:43:19.933Z,54.57
2023-06-21T03:44:19.958Z,61.42
2023-06-21T03:45:20.040Z,67.11
2023-06-21T03:46:20.064Z,70.89
2023-06-21T03:47:20.103Z,70.16
2023-06-21T03:48:20.072Z,71.02
2023-06-21T03:49:20.126Z,75.06
2023-06-21T03:50:20.235Z,80.23
2023-06-21T03:51:19.266Z,75.77
2023-06-21T03:52:20.293Z,73.03
2023-06-21T03:53:20.376Z,75.11
2023-06-21T03:54:20.472Z,76.60
2023-06-21T03:55:20.450Z,72.12
2023-06-21T03:56:20.439Z,73.68
2023-06-21T03:57:19.481Z,69.75
2023-06-21T03:58:19.513Z,66.42
2023-06-21T03:59:20.532Z,62.41
2023-06-21T04:00:19.575Z,57.26
2023-06-21T04:01:20.626Z,57.32
2023-06-21T04:02:20.596Z,60.27
2023-06-21T04:03:20.646Z,63.03
2023-06-21T04:04:20.728Z,63.58
2023-06-21T04:05:20.692Z,64.77
2023-06-21T04:06:20.702Z,67.43
2023-06-21T04:07:21.609Z,68.20
2023-06-21T04:08:19.789Z,71.64
2023-06-21T04:09:20.848Z,74.70
2023-06-21T04:10:20.843Z,70.82
2023-06-21T04:11:20.902Z,65.74
2023-06-21T04:12:20.927Z,62.14
2023-06-21T04:13:20.960Z,54.89
2023-06-21T04:14:20.973Z,55.91
2023-06-21T04:15:21.025Z,58.32
2023-06-21T04:16:21.088Z,58.07
2023-06-21T04:17:21.062Z,56.71
2023-06-21T04:18:20.079Z,56.15
2023-06-21T04:19:21.107Z,51.09
2023-06-21T04:20:20.091Z,45.83
2023-06-21T04:21:21.105Z,43.65
2023-06-21T04:22:20.153Z,40.32
2023-06-21T04:23:20.140Z,39.42
2023-06-21T04:24:21.223Z,38.68
2023-06-21T04:25:21.271Z,39.83
2023-06-21T04:26:20.286Z,41.87
2023-06-21T04:27:20.286Z,43.87
2023-06-21T04:28:21.308Z,40.93
2023-06-21T04:29:21.393Z,50.56
2023-06-21T04:30:21.332Z,65.77
2023-06-21T04:31:21.319Z,72.36
2023-06-21T04:32:20.357Z,59.23
2023-06-21T04:33:21.307Z,53.83
2023-06-21T04:34:20.353Z,49.99
2023-06-21T04:35:21.369Z,48.96
2023-06-21T04:36:21.382Z,49.41
2023-06-21T04:37:21.425Z,56.68
2023-06-21T04:38:21.459Z,55.92
2023-06-21T04:39:20.573Z,48.53
2023-06-21T04:40:21.561Z,44.07
2023-06-21T04:41:21.601Z,41.86
2023-06-21T04:42:21.667Z,44.28
2023-06-21T04:43:21.692Z,44.93
2023-06-21T04:44:21.712Z,43.54
2023-06-21T04:45:20.760Z,39.70
2023-06-21T04:46:21.879Z,35.81
2023-06-21T04:47:20.811Z,34.49
2023-06-21T04:48:21.835Z,32.96
2023-06-21T04:49:21.901Z,33.98
2023-06-21T04:50:29.044Z,31.30
2023-06-21T04:51:21.920Z,31.36
2023-06-21T04:52:21.918Z,31.64
2023-06-21T04:53:21.961Z,31.69
2023-06-21T04:54:20.923Z,34.04
2023-06-21T04:55:20.978Z,39.72
2023-06-21T04:56:21.869Z,37.93
2023-06-21T04:57:21.867Z,38.77
2023-06-21T04:58:20.882Z,37.39
2023-06-21T04:59:21.916Z,36.58
2023-06-21T05:00:20.895Z,37.87
2023-06-21T05:01:21.858Z,41.94
2023-06-21T05:02:21.882Z,42.96
2023-06-21T05:03:20.887Z,44.70
2023-06-21T05:04:21.814Z,42.88
2023-06-21T05:05:20.816Z,41.68
2023-06-21T05:06:21.861Z,44.63
2023-06-21T05:07:20.803Z,54.32
2023-06-21T05:08:21.806Z,45.89
2023-06-21T05:09:21.806Z,42.86
2023-06-21T05:10:21.787Z,43.75
2023-06-21T05:11:21.776Z,43.47
2023-06-21T05:12:20.772Z,37.79
2023-06-21T05:13:21.825Z,37.16
2023-06-21T05:14:21.760Z,41.70
2023-06-21T05:15:21.760Z,40.14
2023-06-21T05:16:21.748Z,39.39
2023-06-21T05:17:21.780Z,33.18
2023-06-21T05:18:21.729Z,31.83
2023-06-21T05:19:21.803Z,34.65
2023-06-21T05:20:21.721Z,36.57
2023-06-21T05:21:21.722Z,34.39
2023-06-21T05:22:21.710Z,31.83
2023-06-21T05:23:21.709Z,34.08
2023-06-21T05:24:21.740Z,35.24
2023-06-21T05:25:21.709Z,32.22
2023-06-21T05:26:21.677Z,32.99
2023-06-21T05:27:21.760Z,34.26
2023-06-21T05:28:20.681Z,36.85
2023-06-21T05:29:21.688Z,38.05
2023-06-21T05:30:21.684Z,38.08
2023-06-21T05:31:21.786Z,38.81
2023-06-21T05:32:21.784Z,39.69
2023-06-21T05:33:21.779Z,42.03
2023-06-21T05:34:21.888Z,43.03
2023-06-21T05:35:22.031Z,42.46
2023-06-21T05:36:20.973Z,43.96
2023-06-21T05:37:22.026Z,44.47
2023-06-21T05:38:22.065Z,47.13
2023-06-21T05:39:22.140Z,48.14
2023-06-21T05:40:22.179Z,48.45
2023-06-21T05:41:22.198Z,46.92
2023-06-21T05:42:22.273Z,46.73
2023-06-21T05:43:21.350Z,42.78
2023-06-21T05:44:21.317Z,38.65
2023-06-21T05:45:22.320Z,38.03
2023-06-21T05:46:22.468Z,38.99
2023-06-21T05:47:22.468Z,35.57
2023-06-21T05:48:22.545Z,27.58
2023-06-21T05:49:22.451Z,26.36
2023-06-21T05:50:21.544Z,32.12
2023-06-21T05:51:21.533Z,29.17
2023-06-21T05:52:22.615Z,26.27
2023-06-21T05:53:22.740Z,24.75
2023-06-21T05:54:22.669Z,28.11
2023-06-21T05:55:22.752Z,31.22
2023-06-21T05:56:22.816Z,32.47
2023-06-21T05:57:22.821Z,31.38
2023-06-21T05:58:22.927Z,28.63
2023-06-21T05:59:21.920Z,30.59
2023-06-21T06:00:23.802Z,34.08
2023-06-21T06:01:25.141Z,37.26
2023-06-21T06:02:23.072Z,39.34
2023-06-21T06:03:23.086Z,69.99
2023-06-21T06:04:23.022Z,152.17
2023-06-21T06:05:21.984Z,181.69
2023-06-21T06:06:21.979Z,336.21
2023-06-21T06:07:22.965Z,436.76
2023-06-21T06:08:22.973Z,341.12
2023-06-21T06:09:22.956Z,251.42
2023-06-21T06:10:22.941Z,259.62
2023-06-21T06:11:22.928Z,219.92
2023-06-21T06:12:22.995Z,146.34
2023-06-21T06:13:22.925Z,160.24
2023-06-21T06:14:23.393Z,670.96
2023-06-21T06:15:23.088Z,881.69
2023-06-21T06:16:22.906Z,572.42
2023-06-21T06:17:21.970Z,485.17
2023-06-21T06:18:21.907Z,303.32
2023-06-21T06:19:22.879Z,151.40
2023-06-21T06:20:21.906Z,114.66
2023-06-21T06:21:22.926Z,116.32
2023-06-21T06:22:22.908Z,102.07
2023-06-21T06:23:22.865Z,94.98
2023-06-21T06:24:21.875Z,90.38
2023-06-21T06:25:22.897Z,89.19
2023-06-21T06:26:22.868Z,82.66
2023-06-21T06:27:22.883Z,77.21
2023-06-21T06:28:22.833Z,74.65
2023-06-21T06:29:22.825Z,93.24
2023-06-21T06:30:22.866Z,84.97
2023-06-21T06:31:22.857Z,132.24
2023-06-21T06:32:22.841Z,208.31
2023-06-21T06:33:22.791Z,260.02
2023-06-21T06:34:22.788Z,311.96
2023-06-21T06:35:22.824Z,283.78
2023-06-21T06:36:22.817Z,332.52
2023-06-21T06:37:27.538Z,269.84
2023-06-21T06:38:22.773Z,241.73
2023-06-21T06:39:22.778Z,276.52
2023-06-21T06:40:22.756Z,254.54
2023-06-21T06:41:22.744Z,295.80
2023-06-21T06:42:22.776Z,276.82
2023-06-21T06:43:22.739Z,272.34
2023-06-21T06:44:21.762Z,359.42
2023-06-21T06:45:23.459Z,326.13
2023-06-21T06:46:22.735Z,247.38
2023-06-21T06:47:21.886Z,218.33
2023-06-21T06:48:22.719Z,208.88
2023-06-21T06:49:22.695Z,394.47
2023-06-21T06:50:21.783Z,443.24
2023-06-21T06:51:22.685Z,454.17
2023-06-21T06:52:22.806Z,229.70
2023-06-21T06:53:22.671Z,81.93
2023-06-21T06:54:22.723Z,71.27
2023-06-21T06:55:23.004Z,72.12
2023-06-21T06:56:22.643Z,86.82
2023-06-21T06:57:35.255Z,53.08
2023-06-21T06:58:22.622Z,42.55
2023-06-21T06:59:22.705Z,34.85
2023-06-21T07:00:22.969Z,17.59
2023-06-21T07:01:21.608Z,17.11
2023-06-21T07:02:22.633Z,23.05
2023-06-21T07:03:33.055Z,19.91
2023-06-21T07:04:22.824Z,20.00
2023-06-21T07:05:24.560Z,20.38
2023-06-21T07:06:22.640Z,22.10
2023-06-21T07:07:22.631Z,25.33
2023-06-21T07:08:22.683Z,27.28
2023-06-21T07:09:22.600Z,27.71
2023-06-21T07:10:22.620Z,30.25
2023-06-21T07:11:22.620Z,66.62
2023-06-21T07:12:22.583Z,59.87
2023-06-21T07:13:21.585Z,63.56
2023-06-21T07:14:22.605Z,55.56
2023-06-21T07:15:24.137Z,70.67
2023-06-21T07:16:22.551Z,67.14
2023-06-21T07:17:22.632Z,73.13
2023-06-21T07:18:22.954Z,59.53
2023-06-21T07:19:22.558Z,36.87
2023-06-21T07:20:22.589Z,45.96
2023-06-21T07:21:25.658Z,27.31
2023-06-21T07:22:22.565Z,25.27
2023-06-21T07:23:22.640Z,20.29
2023-06-21T07:24:23.028Z,18.84
2023-06-21T07:25:22.545Z,16.68
2023-06-21T07:26:25.291Z,16.59
2023-06-21T07:27:22.601Z,15.74
2023-06-21T07:28:22.482Z,16.72
2023-06-21T07:29:22.472Z,12.42
2023-06-21T07:30:22.507Z,12.07
2023-06-21T07:31:21.465Z,13.79
2023-06-21T07:32:22.605Z,13.42
2023-06-21T07:33:21.453Z,11.96
2023-06-21T07:34:22.452Z,11.32
2023-06-21T07:35:22.449Z,11.82
2023-06-21T07:36:22.435Z,9.01
2023-06-21T07:37:22.483Z,3.89
2023-06-21T07:38:22.439Z,2.91
2023-06-21T07:39:21.469Z,4.50
2023-06-21T07:40:22.431Z,3.50
2023-06-21T07:41:25.390Z,2.62
2023-06-21T07:42:22.557Z,2.63
2023-06-21T07:43:22.372Z,2.71
2023-06-21T07:44:21.413Z,2.92
2023-06-21T07:45:21.395Z,2.83
2023-06-21T07:46:21.588Z,3.79
2023-06-21T07:47:21.375Z,3.10
2023-06-21T07:48:22.384Z,3.55
2023-06-21T07:49:22.337Z,3.55
2023-06-21T07:50:23.283Z,5.66
2023-06-21T07:51:22.520Z,5.65
2023-06-21T07:52:22.516Z,5.12
2023-06-21T07:53:22.315Z,4.18
2023-06-21T07:54:22.303Z,4.05
2023-06-21T07:55:21.321Z,5.15
2023-06-21T07:56:22.535Z,4.41
2023-06-21T07:57:21.285Z,8.05
2023-06-21T07:58:22.275Z,18.95
2023-06-21T07:59:21.303Z,11.18
2023-06-21T08:00:21.281Z,6.03
2023-06-21T08:01:21.289Z,6.30
2023-06-21T08:02:22.380Z,4.17
2023-06-21T08:03:21.343Z,5.16
2023-06-21T08:04:22.311Z,4.34
2023-06-21T08:05:22.263Z,3.08
2023-06-21T08:06:22.285Z,4.64
2023-06-21T08:07:24.076Z,5.81
2023-06-21T08:08:22.522Z,5.26
2023-06-21T08:09:21.242Z,4.42
2023-06-21T08:10:22.269Z,3.57
2023-06-21T08:11:21.191Z,2.41
2023-06-21T08:12:22.216Z,2.23
2023-06-21T08:13:22.196Z,3.87
2023-06-21T08:14:22.185Z,5.19
2023-06-21T08:15:21.237Z,4.89
2023-06-21T08:16:22.168Z,3.99
2023-06-21T08:17:22.247Z,3.94
2023-06-21T08:18:21.185Z,3.76
2023-06-21T08:19:22.451Z,13.42
2023-06-21T08:20:22.204Z,15.09
2023-06-21T08:21:21.118Z,13.75
2023-06-21T08:22:22.121Z,9.86
2023-06-21T08:23:22.105Z,8.97
2023-06-21T08:24:21.162Z,6.98
2023-06-21T08:25:22.093Z,6.10
2023-06-21T08:26:24.086Z,5.74
2023-06-21T08:27:22.081Z,10.77
2023-06-21T08:28:22.102Z,8.35
2023-06-21T08:29:22.102Z,6.76
2023-06-21T08:30:22.086Z,10.46
2023-06-21T08:31:23.712Z,7.04
2023-06-21T08:32:22.285Z,4.40
2023-06-21T08:33:21.262Z,5.05
2023-06-21T08:34:22.273Z,3.21
2023-06-21T08:35:22.299Z,1.73
2023-06-21T08:36:21.362Z,1.61
2023-06-21T08:37:22.384Z,0.94
2023-06-21T08:38:28.033Z,0.81
2023-06-21T08:39:22.368Z,0.72
2023-06-21T08:40:22.378Z,0.73
2023-06-21T08:41:22.542Z,0.63
2023-06-21T08:42:22.352Z,0.34
2023-06-21T08:43:21.325Z,0.34
2023-06-21T08:44:22.377Z,0.34
2023-06-21T08:45:22.342Z,0.34
2023-06-21T08:46:22.370Z,0.34
2023-06-21T08:47:22.368Z,0.61
2023-06-21T08:48:22.293Z,0.73
2023-06-21T08:49:22.376Z,0.46
2023-06-21T08:50:21.454Z,0.50
2023-06-21T08:51:22.305Z,0.50
2023-06-21T08:52:21.261Z,0.44
2023-06-21T08:53:21.271Z,0.41
2023-06-21T08:54:21.268Z,0.49
2023-06-21T08:55:21.736Z,0.46
2023-06-21T08:56:22.562Z,0.43
2023-06-21T08:57:22.249Z,0.40
2023-06-21T08:58:21.270Z,0.72
2023-06-21T08:59:22.237Z,0.54
2023-06-21T09:00:22.332Z,0.74
2023-06-21T09:01:22.255Z,0.62
2023-06-21T09:02:22.311Z,1.00
2023-06-21T09:03:22.406Z,0.77
2023-06-21T09:04:22.423Z,0.81
2023-06-21T09:05:21.219Z,0.89
2023-06-21T09:06:21.184Z,0.97
2023-06-21T09:07:22.189Z,1.44
2023-06-21T09:08:21.214Z,1.02
2023-06-21T09:09:22.163Z,0.70
2023-06-21T09:10:22.229Z,1.10
2023-06-21T09:11:22.164Z,0.90
2023-06-21T09:12:22.158Z,1.71
2023-06-21T09:13:22.178Z,2.70
2023-06-21T09:14:22.258Z,2.38
2023-06-21T09:15:22.306Z,1.56
2023-06-21T09:16:22.453Z,1.60
2023-06-21T09:17:22.400Z,1.88
2023-06-21T09:18:22.367Z,1.91
2023-06-21T09:19:22.410Z,2.00
2023-06-21T09:20:22.442Z,1.64
2023-06-21T09:21:23.924Z,1.03
2023-06-21T09:22:22.477Z,0.87
2023-06-21T09:23:22.473Z,0.83
2023-06-21T09:24:22.456Z,2.19
2023-06-21T09:25:22.448Z,1.49
2023-06-21T09:26:22.423Z,2.55
2023-06-21T09:27:22.417Z,2.97
2023-06-21T09:28:22.397Z,18.95
2023-06-21T09:29:22.374Z,18.56
2023-06-21T09:30:36.092Z,5.51
2023-06-21T09:31:23.176Z,2.29
2023-06-21T09:32:22.590Z,1.63
2023-06-21T09:33:22.585Z,1.10
2023-06-21T09:34:22.418Z,1.39
2023-06-21T09:35:22.460Z,2.92
2023-06-21T09:36:21.509Z,3.99
2023-06-21T09:37:22.401Z,3.56
2023-06-21T09:38:22.333Z,4.11
2023-06-21T09:39:22.493Z,6.63
2023-06-21T09:40:22.339Z,2.46
2023-06-21T09:41:21.325Z,1.29
2023-06-21T09:42:21.337Z,1.06
2023-06-21T09:43:22.336Z,1.59
2023-06-21T09:44:22.362Z,4.27
2023-06-21T09:45:22.311Z,2.78
2023-06-21T09:46:22.276Z,1.09
2023-06-21T09:47:21.318Z,0.57
2023-06-21T09:48:21.598Z,0.56
2023-06-21T09:49:22.407Z,0.85
2023-06-21T09:50:22.406Z,0.74
2023-06-21T09:51:21.598Z,0.92
2023-06-21T09:52:22.402Z,0.87
2023-06-21T09:53:21.450Z,0.64
2023-06-21T09:54:22.448Z,0.51
2023-06-21T09:55:22.566Z,0.48
2023-06-21T09:56:22.562Z,0.68
2023-06-21T09:57:22.929Z,2.45
2023-06-21T09:58:21.638Z,2.41
2023-06-21T09:59:22.629Z,5.39
2023-06-21T10:00:21.676Z,1.91
2023-06-21T10:01:21.836Z,1.68
2023-06-21T10:02:22.823Z,0.59
2023-06-21T10:03:21.746Z,0.76
2023-06-21T10:04:22.805Z,0.75
2023-06-21T10:05:22.826Z,0.52
2023-06-21T10:06:21.803Z,0.66
2023-06-21T10:07:22.873Z,0.82
2023-06-21T10:08:22.841Z,1.03
2023-06-21T10:09:22.900Z,0.74
2023-06-21T10:10:22.938Z,0.55
2023-06-21T10:11:21.950Z,0.78
2023-06-21T10:12:22.973Z,0.97
2023-06-21T10:13:23.013Z,1.58
2023-06-21T10:14:22.048Z,1.42
2023-06-21T10:15:23.065Z,0.73
2023-06-21T10:16:23.075Z,0.51
2023-06-21T10:17:22.157Z,0.84
2023-06-21T10:18:23.200Z,0.81
2023-06-21T10:19:23.173Z,0.72
2023-06-21T10:20:23.201Z,0.62
2023-06-21T10:21:23.216Z,0.64
2023-06-21T10:22:22.270Z,0.53
2023-06-21T10:23:23.266Z,0.58
2023-06-21T10:24:22.291Z,0.49
2023-06-21T10:25:23.345Z,0.52
2023-06-21T10:26:23.357Z,0.48
2023-06-21T10:27:23.473Z,0.61
2023-06-21T10:28:23.446Z,0.49
2023-06-21T10:29:23.385Z,0.63
2023-06-21T10:30:23.428Z,1.29
2023-06-21T10:31:22.566Z,1.01
2023-06-21T10:32:22.605Z,0.48
2023-06-21T10:33:23.595Z,0.46
2023-06-21T10:34:23.209Z,0.71
2023-06-21T10:35:22.707Z,0.68
2023-06-21T10:36:22.819Z,0.50
2023-06-21T10:37:23.693Z,0.69
2023-06-21T10:38:22.736Z,0.92
2023-06-21T10:39:23.756Z,0.77
2023-06-21T10:40:24.180Z,0.77
2023-06-21T10:41:22.821Z,0.75
2023-06-21T10:42:22.851Z,0.64
2023-06-21T10:43:22.869Z,0.63
2023-06-21T10:44:24.954Z,0.70
2023-06-21T10:45:23.934Z,0.50
2023-06-21T10:46:23.149Z,0.50
2023-06-21T10:47:24.168Z,0.78
2023-06-21T10:48:24.012Z,0.93
2023-06-21T10:49:23.007Z,1.29
2023-06-21T10:50:24.016Z,0.94
2023-06-21T10:51:24.082Z,0.89
2023-06-21T10:52:24.143Z,0.60
2023-06-21T10:53:24.134Z,0.54
2023-06-21T10:54:24.158Z,0.50
2023-06-21T10:55:23.181Z,0.50
2023-06-21T10:56:24.230Z,0.95
2023-06-21T10:57:24.224Z,0.65
2023-06-21T10:58:23.254Z,0.55
2023-06-21T10:59:24.330Z,0.50
2023-06-21T11:00:23.349Z,0.68
2023-06-21T11:01:24.393Z,0.65
2023-06-21T11:02:24.438Z,0.85
2023-06-21T11:03:24.445Z,0.65
2023-06-21T11:04:23.540Z,0.74
2023-06-21T11:05:24.681Z,0.60
2023-06-21T11:06:23.612Z,0.71
2023-06-21T11:07:23.658Z,0.51
2023-06-21T11:08:23.694Z,0.56
2023-06-21T11:09:23.675Z,0.46
2023-06-21T11:10:23.682Z,0.66
2023-06-21T11:11:24.763Z,0.65
2023-06-21T11:12:24.819Z,0.52
2023-06-21T11:13:24.768Z,0.74
2023-06-21T11:14:23.835Z,0.54
2023-06-21T11:15:23.846Z,0.46
2023-06-21T11:16:24.897Z,0.56
2023-06-21T11:17:24.991Z,0.52
2023-06-21T11:18:25.002Z,0.63
2023-06-21T11:19:25.004Z,0.67
2023-06-21T11:20:24.021Z,0.56
2023-06-21T11:21:24.059Z,0.63
2023-06-21T11:22:24.086Z,0.49
2023-06-21T11:23:24.913Z,0.57
2023-06-21T11:24:25.135Z,0.57
2023-06-21T11:25:24.178Z,0.65
2023-06-21T11:26:25.157Z,0.56
2023-06-21T11:27:24.293Z,0.63
2023-06-21T11:28:24.258Z,0.69
2023-06-21T11:29:25.323Z,0.47
2023-06-21T11:30:25.354Z,0.50
2023-06-21T11:31:25.461Z,0.47
2023-06-21T11:32:24.388Z,0.62
2023-06-21T11:33:25.421Z,0.57
2023-06-21T11:34:24.414Z,0.69
2023-06-21T11:35:24.453Z,0.68
2023-06-21T11:36:24.492Z,0.65
2023-06-21T11:37:25.516Z,0.60
2023-06-21T11:38:25.562Z,0.74
2023-06-21T11:39:24.645Z,0.63
2023-06-21T11:40:25.821Z,0.59
2023-06-21T11:41:24.630Z,0.50
2023-06-21T11:42:24.665Z,0.46
2023-06-21T11:43:25.692Z,0.51
2023-06-21T11:44:25.703Z,0.51
2023-06-21T11:45:24.774Z,0.70
2023-06-21T11:46:25.781Z,0.69
2023-06-21T11:47:25.878Z,0.79
2023-06-21T11:48:24.920Z,0.77
2023-06-21T11:49:25.899Z,0.50
2023-06-21T11:50:26.322Z,0.61
2023-06-21T11:51:25.071Z,0.59
2023-06-21T11:52:25.045Z,0.73
2023-06-21T11:53:26.052Z,0.63
2023-06-21T11:54:25.098Z,0.49
2023-06-21T11:55:25.115Z,0.58
2023-06-21T11:56:25.169Z,0.59
2023-06-21T11:57:26.170Z,0.54
2023-06-21T11:58:26.230Z,0.56
2023-06-21T11:59:25.259Z,0.64
2023-06-21T12:00:25.321Z,0.63
2023-06-21T12:01:26.270Z,0.72
2023-06-21T12:02:25.446Z,0.98
2023-06-21T12:03:26.558Z,0.81
2023-06-21T12:04:25.492Z,0.90
2023-06-21T12:05:26.633Z,0.86
2023-06-21T12:06:26.431Z,0.81
2023-06-21T12:07:26.446Z,0.75
2023-06-21T12:08:26.890Z,0.75
2023-06-21T12:09:26.913Z,0.72
2023-06-21T12:10:26.958Z,0.87
2023-06-21T12:11:26.752Z,0.82
2023-06-21T12:12:26.962Z,0.99
2023-06-21T12:13:26.896Z,1.02
2023-06-21T12:14:26.803Z,1.13
2023-06-21T12:15:26.910Z,1.31
2023-06-21T12:16:26.104Z,1.14
2023-06-21T12:17:26.087Z,1.00
2023-06-21T12:18:26.190Z,0.97
2023-06-21T12:19:27.070Z,0.94
2023-06-21T12:20:27.322Z,1.00
2023-06-21T12:21:27.239Z,0.88
2023-06-21T12:22:26.122Z,0.87
2023-06-21T12:23:26.120Z,1.40
2023-06-21T12:24:26.165Z,1.45
2023-06-21T12:25:27.350Z,0.97
2023-06-21T12:26:26.259Z,0.87
2023-06-21T12:27:26.436Z,0.74
2023-06-21T12:28:26.433Z,0.80
2023-06-21T12:29:26.376Z,0.89
2023-06-21T12:30:27.875Z,0.77
2023-06-21T12:31:26.556Z,0.63
2023-06-21T12:32:26.572Z,0.50
2023-06-21T12:33:26.633Z,0.49
2023-06-21T12:34:27.729Z,0.53
2023-06-21T12:35:27.659Z,0.96
2023-06-21T12:36:27.692Z,0.91
2023-06-21T12:37:26.740Z,0.74
2023-06-21T12:38:27.709Z,0.70
2023-06-21T12:39:26.737Z,0.51
2023-06-21T12:40:28.018Z,0.57
2023-06-21T12:41:26.801Z,0.78
2023-06-21T12:42:27.816Z,0.72
2023-06-21T12:43:26.916Z,0.63
2023-06-21T12:44:26.936Z,0.64
2023-06-21T12:45:27.914Z,0.75
2023-06-21T12:46:26.978Z,0.50
2023-06-21T12:47:27.107Z,0.61
2023-06-21T12:48:27.054Z,0.75
2023-06-21T12:49:27.009Z,0.99
2023-06-21T12:50:28.333Z,0.97
2023-06-21T12:51:27.196Z,0.73
2023-06-21T12:52:28.191Z,0.77
2023-06-21T12:53:28.177Z,0.66
2023-06-21T12:54:27.254Z,0.79
2023-06-21T12:55:28.255Z,0.71
2023-06-21T12:56:27.360Z,0.64
2023-06-21T12:57:28.394Z,0.62
2023-06-21T12:58:28.423Z,0.81
2023-06-21T12:59:27.357Z,0.97
2023-06-21T13:00:27.769Z,0.75
2023-06-21T13:01:27.509Z,0.66